sensor_id;sensor_type;location;lat;lon;timestamp;P1;durP1;ratioP1;P2;durP2;ratioP2
34248;SDS011;20508;50.834;3.160;2022-09-09T00:04:25;1.67;;;0.90;;
34248;SDS011;20508;50.834;3.160;2022-09-09T00:16:03;1.63;;;0.70;;
34248;SDS011;20508;50.834;3.160;2022-09-09T00:22:02;2.13;;;0.70;;
34248;SDS011;20508;50.834;3.160;2022-09-09T00:24:55;1.27;;;0.80;;
34248;SDS011;20508;50.834;3.160;2022-09-09T00:28:19;2.50;;;0.80;;
34248;SDS011;20508;50.834;3.160;2022-09-09T00:31:14;2.13;;;1.00;;
34248;SDS011;20508;50.834;3.160;2022-09-09T00:33:51;1.92;;;0.80;;
34248;SDS011;20508;50.834;3.160;2022-09-09T00:36:35;1.90;;;0.70;;
34248;SDS011;20508;50.834;3.160;2022-09-09T00:39:34;1.33;;;0.70;;
34248;SDS011;20508;50.834;3.160;2022-09-09T00:42:42;3.92;;;1.10;;
34248;SDS011;20508;50.834;3.160;2022-09-09T00:48:09;1.77;;;0.80;;
34248;SDS011;20508;50.834;3.160;2022-09-09T00:53:42;1.70;;;0.90;;
34248;SDS011;20508;50.834;3.160;2022-09-09T00:56:31;3.28;;;1.10;;
34248;SDS011;20508;50.834;3.160;2022-09-09T00:59:27;2.92;;;0.70;;
34248;SDS011;20508;50.834;3.160;2022-09-09T01:02:27;2.35;;;0.90;;
34248;SDS011;20508;50.834;3.160;2022-09-09T01:05:13;1.25;;;0.85;;
34248;SDS011;20508;50.834;3.160;2022-09-09T01:08:00;1.80;;;0.70;;
34248;SDS011;20508;50.834;3.160;2022-09-09T01:10:51;2.50;;;0.70;;
34248;SDS011;20508;50.834;3.160;2022-09-09T01:13:32;1.95;;;0.75;;
34248;SDS011;20508;50.834;3.160;2022-09-09T01:16:04;2.47;;;0.80;;
34248;SDS011;20508;50.834;3.160;2022-09-09T01:18:49;1.52;;;0.80;;
34248;SDS011;20508;50.834;3.160;2022-09-09T01:27:49;1.87;;;0.87;;
34248;SDS011;20508;50.834;3.160;2022-09-09T01:30:46;2.30;;;0.93;;
34248;SDS011;20508;50.834;3.160;2022-09-09T01:33:23;1.33;;;0.70;;
34248;SDS011;20508;50.834;3.160;2022-09-09T01:36:11;1.83;;;0.90;;
34248;SDS011;20508;50.834;3.160;2022-09-09T01:38:46;4.10;;;0.88;;
34248;SDS011;20508;50.834;3.160;2022-09-09T01:41:15;6.80;;;1.90;;
34248;SDS011;20508;50.834;3.160;2022-09-09T01:46:45;2.03;;;0.80;;
34248;SDS011;20508;50.834;3.160;2022-09-09T01:49:11;1.95;;;0.77;;
34248;SDS011;20508;50.834;3.160;2022-09-09T01:51:42;3.67;;;0.98;;
34248;SDS011;20508;50.834;3.160;2022-09-09T01:54:21;3.55;;;0.90;;
34248;SDS011;20508;50.834;3.160;2022-09-09T02:00:48;4.25;;;0.98;;
34248;SDS011;20508;50.834;3.160;2022-09-09T02:03:28;2.88;;;1.00;;
34248;SDS011;20508;50.834;3.160;2022-09-09T02:06:35;2.70;;;0.80;;
34248;SDS011;20508;50.834;3.160;2022-09-09T02:09:14;2.45;;;0.93;;
34248;SDS011;20508;50.834;3.160;2022-09-09T02:11:59;3.67;;;0.88;;
34248;SDS011;20508;50.834;3.160;2022-09-09T02:14:34;3.92;;;0.73;;
34248;SDS011;20508;50.834;3.160;2022-09-09T02:17:13;3.15;;;1.15;;
34248;SDS011;20508;50.834;3.160;2022-09-09T02:20:03;3.05;;;1.17;;
34248;SDS011;20508;50.834;3.160;2022-09-09T02:22:50;2.75;;;0.82;;
34248;SDS011;20508;50.834;3.160;2022-09-09T02:25:49;3.05;;;0.93;;
34248;SDS011;20508;50.834;3.160;2022-09-09T02:28:25;2.08;;;1.00;;
34248;SDS011;20508;50.834;3.160;2022-09-09T02:31:06;3.13;;;1.10;;
34248;SDS011;20508;50.834;3.160;2022-09-09T02:33:46;2.75;;;1.00;;
34248;SDS011;20508;50.834;3.160;2022-09-09T02:36:38;3.28;;;1.10;;
34248;SDS011;20508;50.834;3.160;2022-09-09T02:39:13;2.35;;;0.90;;
34248;SDS011;20508;50.834;3.160;2022-09-09T02:42:17;3.20;;;0.90;;
34248;SDS011;20508;50.834;3.160;2022-09-09T02:44:56;3.05;;;1.35;;
34248;SDS011;20508;50.834;3.160;2022-09-09T02:48:20;3.38;;;1.00;;
34248;SDS011;20508;50.834;3.160;2022-09-09T02:57:26;3.33;;;1.17;;
34248;SDS011;20508;50.834;3.160;2022-09-09T03:00:30;6.80;;;1.77;;
34248;SDS011;20508;50.834;3.160;2022-09-09T03:03:13;2.78;;;1.15;;
34248;SDS011;20508;50.834;3.160;2022-09-09T03:05:57;3.42;;;1.27;;
34248;SDS011;20508;50.834;3.160;2022-09-09T03:08:44;3.58;;;1.27;;
34248;SDS011;20508;50.834;3.160;2022-09-09T03:11:28;5.47;;;1.40;;
34248;SDS011;20508;50.834;3.160;2022-09-09T03:16:53;5.38;;;1.50;;
34248;SDS011;20508;50.834;3.160;2022-09-09T03:19:53;3.30;;;1.27;;
34248;SDS011;20508;50.834;3.160;2022-09-09T03:22:31;3.00;;;1.13;;
34248;SDS011;20508;50.834;3.160;2022-09-09T03:25:13;7.43;;;1.33;;
34248;SDS011;20508;50.834;3.160;2022-09-09T03:28:00;3.03;;;1.30;;
34248;SDS011;20508;50.834;3.160;2022-09-09T03:30:29;4.70;;;1.60;;
34248;SDS011;20508;50.834;3.160;2022-09-09T03:33:08;4.38;;;1.48;;
34248;SDS011;20508;50.834;3.160;2022-09-09T03:35:55;5.40;;;1.73;;
34248;SDS011;20508;50.834;3.160;2022-09-09T03:38:29;4.90;;;1.33;;
34248;SDS011;20508;50.834;3.160;2022-09-09T03:41:07;3.28;;;1.30;;
34248;SDS011;20508;50.834;3.160;2022-09-09T03:44:09;3.80;;;1.30;;
34248;SDS011;20508;50.834;3.160;2022-09-09T03:46:45;4.95;;;1.58;;
34248;SDS011;20508;50.834;3.160;2022-09-09T03:49:18;5.88;;;1.52;;
34248;SDS011;20508;50.834;3.160;2022-09-09T03:52:00;6.72;;;1.30;;
34248;SDS011;20508;50.834;3.160;2022-09-09T03:54:56;3.47;;;1.20;;
34248;SDS011;20508;50.834;3.160;2022-09-09T03:57:42;7.03;;;1.63;;
34248;SDS011;20508;50.834;3.160;2022-09-09T04:00:26;5.57;;;1.65;;
34248;SDS011;20508;50.834;3.160;2022-09-09T04:02:55;5.75;;;1.95;;
34248;SDS011;20508;50.834;3.160;2022-09-09T04:05:30;5.60;;;1.65;;
34248;SDS011;20508;50.834;3.160;2022-09-09T04:08:09;4.85;;;1.65;;
34248;SDS011;20508;50.834;3.160;2022-09-09T04:10:51;4.70;;;1.33;;
34248;SDS011;20508;50.834;3.160;2022-09-09T04:13:45;4.40;;;1.58;;
34248;SDS011;20508;50.834;3.160;2022-09-09T04:16:29;5.57;;;1.40;;
34248;SDS011;20508;50.834;3.160;2022-09-09T04:19:04;5.63;;;1.70;;
34248;SDS011;20508;50.834;3.160;2022-09-09T04:21:50;4.63;;;1.67;;
34248;SDS011;20508;50.834;3.160;2022-09-09T04:24:32;5.38;;;1.50;;
34248;SDS011;20508;50.834;3.160;2022-09-09T04:27:21;6.78;;;1.88;;
34248;SDS011;20508;50.834;3.160;2022-09-09T04:30:17;4.47;;;1.40;;
34248;SDS011;20508;50.834;3.160;2022-09-09T04:32:54;4.03;;;1.58;;
34248;SDS011;20508;50.834;3.160;2022-09-09T04:35:33;4.05;;;1.65;;
34248;SDS011;20508;50.834;3.160;2022-09-09T04:38:04;5.05;;;1.67;;
34248;SDS011;20508;50.834;3.160;2022-09-09T04:40:35;5.88;;;2.22;;
34248;SDS011;20508;50.834;3.160;2022-09-09T04:43:20;3.38;;;1.40;;
34248;SDS011;20508;50.834;3.160;2022-09-09T04:46:09;4.13;;;1.60;;
34248;SDS011;20508;50.834;3.160;2022-09-09T04:48:43;6.20;;;1.95;;
34248;SDS011;20508;50.834;3.160;2022-09-09T04:51:18;6.65;;;2.00;;
34248;SDS011;20508;50.834;3.160;2022-09-09T04:53:57;6.95;;;1.65;;
34248;SDS011;20508;50.834;3.160;2022-09-09T04:56:31;5.32;;;1.70;;
34248;SDS011;20508;50.834;3.160;2022-09-09T04:59:11;4.20;;;1.42;;
34248;SDS011;20508;50.834;3.160;2022-09-09T05:01:48;5.55;;;1.75;;
34248;SDS011;20508;50.834;3.160;2022-09-09T05:04:22;6.68;;;1.95;;
34248;SDS011;20508;50.834;3.160;2022-09-09T05:07:10;6.75;;;1.65;;
34248;SDS011;20508;50.834;3.160;2022-09-09T05:10:17;5.55;;;1.63;;
34248;SDS011;20508;50.834;3.160;2022-09-09T05:12:55;4.78;;;1.67;;
34248;SDS011;20508;50.834;3.160;2022-09-09T05:15:29;5.38;;;1.55;;
34248;SDS011;20508;50.834;3.160;2022-09-09T05:18:26;7.43;;;1.63;;
34248;SDS011;20508;50.834;3.160;2022-09-09T05:21:23;6.88;;;1.95;;
34248;SDS011;20508;50.834;3.160;2022-09-09T05:23:59;6.38;;;2.05;;
34248;SDS011;20508;50.834;3.160;2022-09-09T05:26:38;5.70;;;1.58;;
34248;SDS011;20508;50.834;3.160;2022-09-09T05:29:14;5.85;;;1.63;;
34248;SDS011;20508;50.834;3.160;2022-09-09T05:32:11;4.85;;;1.40;;
34248;SDS011;20508;50.834;3.160;2022-09-09T05:34:46;4.97;;;1.58;;
34248;SDS011;20508;50.834;3.160;2022-09-09T05:37:39;5.05;;;1.55;;
34248;SDS011;20508;50.834;3.160;2022-09-09T05:40:05;8.05;;;2.35;;
34248;SDS011;20508;50.834;3.160;2022-09-09T05:42:43;8.05;;;1.80;;
34248;SDS011;20508;50.834;3.160;2022-09-09T05:45:27;5.75;;;2.10;;
34248;SDS011;20508;50.834;3.160;2022-09-09T05:48:03;3.58;;;1.40;;
34248;SDS011;20508;50.834;3.160;2022-09-09T05:50:52;6.45;;;1.73;;
34248;SDS011;20508;50.834;3.160;2022-09-09T05:53:44;6.28;;;1.80;;
34248;SDS011;20508;50.834;3.160;2022-09-09T05:56:33;4.78;;;1.60;;
34248;SDS011;20508;50.834;3.160;2022-09-09T05:59:08;5.30;;;1.60;;
34248;SDS011;20508;50.834;3.160;2022-09-09T06:01:48;4.55;;;1.70;;
34248;SDS011;20508;50.834;3.160;2022-09-09T06:04:37;5.40;;;2.00;;
34248;SDS011;20508;50.834;3.160;2022-09-09T06:07:08;5.75;;;1.73;;
34248;SDS011;20508;50.834;3.160;2022-09-09T06:09:38;4.93;;;1.60;;
34248;SDS011;20508;50.834;3.160;2022-09-09T06:12:14;6.13;;;2.00;;
34248;SDS011;20508;50.834;3.160;2022-09-09T06:17:32;3.35;;;1.48;;
34248;SDS011;20508;50.834;3.160;2022-09-09T06:20:09;6.32;;;2.03;;
34248;SDS011;20508;50.834;3.160;2022-09-09T06:22:40;7.43;;;2.28;;
34248;SDS011;20508;50.834;3.160;2022-09-09T06:25:19;5.20;;;1.60;;
34248;SDS011;20508;50.834;3.160;2022-09-09T06:27:51;7.45;;;1.85;;
34248;SDS011;20508;50.834;3.160;2022-09-09T06:30:30;6.13;;;1.98;;
34248;SDS011;20508;50.834;3.160;2022-09-09T06:33:14;3.50;;;1.63;;
34248;SDS011;20508;50.834;3.160;2022-09-09T06:35:52;5.63;;;1.55;;
34248;SDS011;20508;50.834;3.160;2022-09-09T06:38:32;4.78;;;1.60;;
34248;SDS011;20508;50.834;3.160;2022-09-09T06:41:25;7.32;;;1.63;;
34248;SDS011;20508;50.834;3.160;2022-09-09T06:44:15;5.63;;;1.60;;
34248;SDS011;20508;50.834;3.160;2022-09-09T06:46:56;10.75;;;1.92;;
34248;SDS011;20508;50.834;3.160;2022-09-09T06:50:01;5.85;;;1.92;;
34248;SDS011;20508;50.834;3.160;2022-09-09T06:52:39;5.95;;;1.60;;
34248;SDS011;20508;50.834;3.160;2022-09-09T06:55:21;5.93;;;1.55;;
34248;SDS011;20508;50.834;3.160;2022-09-09T06:58:10;8.23;;;1.83;;
34248;SDS011;20508;50.834;3.160;2022-09-09T07:03:56;7.18;;;2.00;;
34248;SDS011;20508;50.834;3.160;2022-09-09T07:06:36;6.40;;;1.88;;
34248;SDS011;20508;50.834;3.160;2022-09-09T07:09:31;4.47;;;2.05;;
34248;SDS011;20508;50.834;3.160;2022-09-09T07:12:08;5.15;;;1.92;;
34248;SDS011;20508;50.834;3.160;2022-09-09T07:14:59;5.20;;;1.95;;
34248;SDS011;20508;50.834;3.160;2022-09-09T07:17:50;7.18;;;2.10;;
34248;SDS011;20508;50.834;3.160;2022-09-09T07:20:19;8.45;;;1.98;;
34248;SDS011;20508;50.834;3.160;2022-09-09T07:22:57;7.38;;;1.85;;
34248;SDS011;20508;50.834;3.160;2022-09-09T07:26:01;5.22;;;1.60;;
34248;SDS011;20508;50.834;3.160;2022-09-09T07:28:37;8.27;;;1.65;;
34248;SDS011;20508;50.834;3.160;2022-09-09T07:31:28;6.15;;;1.75;;
34248;SDS011;20508;50.834;3.160;2022-09-09T07:34:07;5.75;;;1.40;;
34248;SDS011;20508;50.834;3.160;2022-09-09T07:39:47;3.97;;;1.70;;
34248;SDS011;20508;50.834;3.160;2022-09-09T07:42:37;6.80;;;1.52;;
34248;SDS011;20508;50.834;3.160;2022-09-09T07:48:24;4.85;;;1.60;;
34248;SDS011;20508;50.834;3.160;2022-09-09T07:51:08;4.03;;;1.60;;
34248;SDS011;20508;50.834;3.160;2022-09-09T07:54:18;4.35;;;1.80;;
34248;SDS011;20508;50.834;3.160;2022-09-09T07:57:05;6.70;;;1.30;;
34248;SDS011;20508;50.834;3.160;2022-09-09T08:02:54;4.13;;;1.40;;
34248;SDS011;20508;50.834;3.160;2022-09-09T08:08:51;6.82;;;1.67;;
34248;SDS011;20508;50.834;3.160;2022-09-09T08:11:47;8.43;;;1.73;;
34248;SDS011;20508;50.834;3.160;2022-09-09T08:14:28;5.28;;;1.60;;
34248;SDS011;20508;50.834;3.160;2022-09-09T08:17:33;4.75;;;1.65;;
34248;SDS011;20508;50.834;3.160;2022-09-09T08:23:25;4.18;;;1.40;;
34248;SDS011;20508;50.834;3.160;2022-09-09T08:26:10;2.77;;;1.30;;
34248;SDS011;20508;50.834;3.160;2022-09-09T08:28:52;3.05;;;1.33;;
34248;SDS011;20508;50.834;3.160;2022-09-09T08:31:35;2.97;;;1.27;;
34248;SDS011;20508;50.834;3.160;2022-09-09T08:34:23;4.22;;;1.42;;
34248;SDS011;20508;50.834;3.160;2022-09-09T08:36:55;4.75;;;1.73;;
34248;SDS011;20508;50.834;3.160;2022-09-09T08:39:31;7.07;;;2.25;;
34248;SDS011;20508;50.834;3.160;2022-09-09T08:48:02;2.97;;;1.30;;
34248;SDS011;20508;50.834;3.160;2022-09-09T08:50:52;2.92;;;1.08;;
34248;SDS011;20508;50.834;3.160;2022-09-09T08:53:34;4.10;;;1.23;;
34248;SDS011;20508;50.834;3.160;2022-09-09T08:56:18;2.97;;;1.30;;
34248;SDS011;20508;50.834;3.160;2022-09-09T08:59:42;2.45;;;1.08;;
34248;SDS011;20508;50.834;3.160;2022-09-09T09:02:17;4.70;;;1.35;;
34248;SDS011;20508;50.834;3.160;2022-09-09T09:17:54;3.35;;;1.10;;
34248;SDS011;20508;50.834;3.160;2022-09-09T09:34:19;3.55;;;0.98;;
34248;SDS011;20508;50.834;3.160;2022-09-09T09:40:47;2.58;;;1.25;;
34248;SDS011;20508;50.834;3.160;2022-09-09T09:43:37;2.15;;;0.95;;
34248;SDS011;20508;50.834;3.160;2022-09-09T09:46:33;2.90;;;1.25;;
34248;SDS011;20508;50.834;3.160;2022-09-09T09:49:15;2.42;;;0.88;;
34248;SDS011;20508;50.834;3.160;2022-09-09T09:52:14;5.20;;;1.10;;
34248;SDS011;20508;50.834;3.160;2022-09-09T09:55:11;2.60;;;1.38;;
34248;SDS011;20508;50.834;3.160;2022-09-09T09:58:13;4.05;;;1.25;;
34248;SDS011;20508;50.834;3.160;2022-09-09T10:00:56;2.75;;;0.90;;
34248;SDS011;20508;50.834;3.160;2022-09-09T10:03:53;3.95;;;1.00;;
34248;SDS011;20508;50.834;3.160;2022-09-09T10:06:56;1.60;;;0.90;;
34248;SDS011;20508;50.834;3.160;2022-09-09T10:10:34;2.15;;;0.77;;
34248;SDS011;20508;50.834;3.160;2022-09-09T10:13:00;4.65;;;1.45;;
34248;SDS011;20508;50.834;3.160;2022-09-09T10:33:57;4.50;;;0.95;;
34248;SDS011;20508;50.834;3.160;2022-09-09T10:37:06;3.63;;;0.95;;
34248;SDS011;20508;50.834;3.160;2022-09-09T10:58:09;1.55;;;0.85;;
34248;SDS011;20508;50.834;3.160;2022-09-09T11:03:56;2.13;;;0.70;;
34248;SDS011;20508;50.834;3.160;2022-09-09T11:06:59;1.75;;;0.77;;
34248;SDS011;20508;50.834;3.160;2022-09-09T11:09:58;1.83;;;0.95;;
34248;SDS011;20508;50.834;3.160;2022-09-09T11:12:32;3.30;;;0.85;;
34248;SDS011;20508;50.834;3.160;2022-09-09T11:15:31;2.40;;;0.95;;
34248;SDS011;20508;50.834;3.160;2022-09-09T11:18:19;1.02;;;0.80;;
34248;SDS011;20508;50.834;3.160;2022-09-09T11:21:03;3.63;;;0.70;;
34248;SDS011;20508;50.834;3.160;2022-09-09T11:23:48;4.07;;;1.58;;
34248;SDS011;20508;50.834;3.160;2022-09-09T11:26:33;3.53;;;1.00;;
34248;SDS011;20508;50.834;3.160;2022-09-09T11:41:17;2.15;;;0.70;;
34248;SDS011;20508;50.834;3.160;2022-09-09T11:44:12;1.77;;;0.80;;
34248;SDS011;20508;50.834;3.160;2022-09-09T11:47:02;3.88;;;0.80;;
34248;SDS011;20508;50.834;3.160;2022-09-09T11:49:52;2.50;;;1.00;;
34248;SDS011;20508;50.834;3.160;2022-09-09T11:52:44;3.35;;;1.00;;
34248;SDS011;20508;50.834;3.160;2022-09-09T11:58:25;4.70;;;1.17;;
34248;SDS011;20508;50.834;3.160;2022-09-09T12:00:52;2.83;;;1.00;;
34248;SDS011;20508;50.834;3.160;2022-09-09T12:12:46;7.00;;;1.08;;
34248;SDS011;20508;50.834;3.160;2022-09-09T12:15:48;2.67;;;1.15;;
34248;SDS011;20508;50.834;3.160;2022-09-09T12:21:46;5.70;;;1.10;;
34248;SDS011;20508;50.834;3.160;2022-09-09T12:27:24;2.50;;;0.98;;
34248;SDS011;20508;50.834;3.160;2022-09-09T12:30:15;2.75;;;0.82;;
34248;SDS011;20508;50.834;3.160;2022-09-09T12:36:32;3.58;;;0.90;;
34248;SDS011;20508;50.834;3.160;2022-09-09T12:42:30;3.13;;;1.00;;
34248;SDS011;20508;50.834;3.160;2022-09-09T12:45:20;1.80;;;1.10;;
34248;SDS011;20508;50.834;3.160;2022-09-09T12:48:06;3.42;;;0.88;;
34248;SDS011;20508;50.834;3.160;2022-09-09T12:50:55;2.20;;;1.02;;
34248;SDS011;20508;50.834;3.160;2022-09-09T12:53:30;5.38;;;1.05;;
34248;SDS011;20508;50.834;3.160;2022-09-09T12:56:36;3.95;;;1.10;;
34248;SDS011;20508;50.834;3.160;2022-09-09T12:59:36;4.60;;;1.00;;
34248;SDS011;20508;50.834;3.160;2022-09-09T13:02:28;2.35;;;0.90;;
34248;SDS011;20508;50.834;3.160;2022-09-09T13:05:06;3.83;;;1.15;;
34248;SDS011;20508;50.834;3.160;2022-09-09T13:08:36;3.33;;;1.20;;
34248;SDS011;20508;50.834;3.160;2022-09-09T13:11:15;2.95;;;1.00;;
34248;SDS011;20508;50.834;3.160;2022-09-09T13:13:54;3.05;;;1.17;;
34248;SDS011;20508;50.834;3.160;2022-09-09T13:20:00;3.75;;;1.33;;
34248;SDS011;20508;50.834;3.160;2022-09-09T13:22:37;3.15;;;1.20;;
34248;SDS011;20508;50.834;3.160;2022-09-09T13:28:31;4.97;;;1.45;;
34248;SDS011;20508;50.834;3.160;2022-09-09T13:31:24;3.95;;;1.17;;
34248;SDS011;20508;50.834;3.160;2022-09-09T13:34:27;6.25;;;1.60;;
34248;SDS011;20508;50.834;3.160;2022-09-09T13:37:16;2.50;;;1.00;;
34248;SDS011;20508;50.834;3.160;2022-09-09T13:39:56;2.40;;;1.10;;
34248;SDS011;20508;50.834;3.160;2022-09-09T13:42:26;3.33;;;1.20;;
34248;SDS011;20508;50.834;3.160;2022-09-09T13:44:56;2.17;;;0.80;;
34248;SDS011;20508;50.834;3.160;2022-09-09T13:47:36;2.10;;;0.95;;
34248;SDS011;20508;50.834;3.160;2022-09-09T13:50:23;3.38;;;0.95;;
34248;SDS011;20508;50.834;3.160;2022-09-09T13:53:08;5.00;;;1.33;;
34248;SDS011;20508;50.834;3.160;2022-09-09T13:55:38;1.42;;;0.77;;
34248;SDS011;20508;50.834;3.160;2022-09-09T13:58:17;2.40;;;0.77;;
34248;SDS011;20508;50.834;3.160;2022-09-09T14:00:53;1.27;;;0.80;;
34248;SDS011;20508;50.834;3.160;2022-09-09T14:03:22;3.67;;;0.82;;
34248;SDS011;20508;50.834;3.160;2022-09-09T14:05:56;1.85;;;0.77;;
34248;SDS011;20508;50.834;3.160;2022-09-09T14:08:28;2.67;;;0.82;;
34248;SDS011;20508;50.834;3.160;2022-09-09T14:11:02;2.95;;;0.90;;
34248;SDS011;20508;50.834;3.160;2022-09-09T14:13:33;2.30;;;0.88;;
34248;SDS011;20508;50.834;3.160;2022-09-09T14:16:17;1.42;;;0.68;;
34248;SDS011;20508;50.834;3.160;2022-09-09T14:18:49;1.80;;;0.82;;
34248;SDS011;20508;50.834;3.160;2022-09-09T14:21:15;1.30;;;0.63;;
34248;SDS011;20508;50.834;3.160;2022-09-09T14:23:47;1.48;;;0.65;;
34248;SDS011;20508;50.834;3.160;2022-09-09T14:26:23;3.63;;;1.05;;
34248;SDS011;20508;50.834;3.160;2022-09-09T14:29:01;1.08;;;0.90;;
34248;SDS011;20508;50.834;3.160;2022-09-09T14:31:48;4.47;;;0.73;;
34248;SDS011;20508;50.834;3.160;2022-09-09T14:34:17;3.00;;;1.00;;
34248;SDS011;20508;50.834;3.160;2022-09-09T14:37:02;2.10;;;0.82;;
34248;SDS011;20508;50.834;3.160;2022-09-09T14:39:31;2.70;;;0.70;;
34248;SDS011;20508;50.834;3.160;2022-09-09T14:42:01;1.88;;;0.80;;
34248;SDS011;20508;50.834;3.160;2022-09-09T14:47:19;3.05;;;1.00;;
34248;SDS011;20508;50.834;3.160;2022-09-09T14:50:05;3.03;;;1.10;;
34248;SDS011;20508;50.834;3.160;2022-09-09T14:52:41;5.13;;;1.10;;
34248;SDS011;20508;50.834;3.160;2022-09-09T14:55:18;1.35;;;0.90;;
34248;SDS011;20508;50.834;3.160;2022-09-09T14:58:04;2.83;;;1.10;;
34248;SDS011;20508;50.834;3.160;2022-09-09T15:00:53;3.47;;;1.33;;
34248;SDS011;20508;50.834;3.160;2022-09-09T15:03:24;5.80;;;1.20;;
34248;SDS011;20508;50.834;3.160;2022-09-09T15:06:21;4.50;;;1.10;;
34248;SDS011;20508;50.834;3.160;2022-09-09T15:08:59;2.50;;;1.20;;
34248;SDS011;20508;50.834;3.160;2022-09-09T15:11:38;3.08;;;1.10;;
34248;SDS011;20508;50.834;3.160;2022-09-09T15:14:13;2.05;;;1.17;;
34248;SDS011;20508;50.834;3.160;2022-09-09T15:16:55;2.28;;;1.30;;
34248;SDS011;20508;50.834;3.160;2022-09-09T15:19:31;2.38;;;1.10;;
34248;SDS011;20508;50.834;3.160;2022-09-09T15:22:25;2.63;;;1.08;;
34248;SDS011;20508;50.834;3.160;2022-09-09T15:25:17;2.85;;;1.27;;
34248;SDS011;20508;50.834;3.160;2022-09-09T15:27:55;2.25;;;0.95;;
34248;SDS011;20508;50.834;3.160;2022-09-09T15:30:34;2.05;;;0.70;;
34248;SDS011;20508;50.834;3.160;2022-09-09T15:33:07;2.90;;;0.80;;
34248;SDS011;20508;50.834;3.160;2022-09-09T15:35:46;1.90;;;0.88;;
34248;SDS011;20508;50.834;3.160;2022-09-09T15:38:18;3.67;;;0.95;;
34248;SDS011;20508;50.834;3.160;2022-09-09T15:41:04;3.92;;;1.48;;
34248;SDS011;20508;50.834;3.160;2022-09-09T15:43:44;3.38;;;1.38;;
34248;SDS011;20508;50.834;3.160;2022-09-09T15:46:46;4.22;;;1.27;;
34248;SDS011;20508;50.834;3.160;2022-09-09T15:49:35;5.13;;;1.10;;
34248;SDS011;20508;50.834;3.160;2022-09-09T15:52:12;4.07;;;1.20;;
34248;SDS011;20508;50.834;3.160;2022-09-09T15:54:44;4.57;;;1.20;;
34248;SDS011;20508;50.834;3.160;2022-09-09T15:57:30;2.92;;;1.05;;
34248;SDS011;20508;50.834;3.160;2022-09-09T16:00:12;2.53;;;1.30;;
34248;SDS011;20508;50.834;3.160;2022-09-09T16:02:59;4.60;;;1.10;;
34248;SDS011;20508;50.834;3.160;2022-09-09T16:05:39;2.42;;;0.90;;
34248;SDS011;20508;50.834;3.160;2022-09-09T16:08:21;4.18;;;1.25;;
34248;SDS011;20508;50.834;3.160;2022-09-09T16:11:06;5.25;;;1.02;;
34248;SDS011;20508;50.834;3.160;2022-09-09T16:13:47;7.32;;;1.08;;
34248;SDS011;20508;50.834;3.160;2022-09-09T16:16:34;5.18;;;1.23;;
34248;SDS011;20508;50.834;3.160;2022-09-09T16:19:21;1.83;;;0.88;;
34248;SDS011;20508;50.834;3.160;2022-09-09T16:21:55;2.92;;;1.05;;
34248;SDS011;20508;50.834;3.160;2022-09-09T16:24:34;4.00;;;1.20;;
34248;SDS011;20508;50.834;3.160;2022-09-09T16:27:05;3.65;;;0.95;;
34248;SDS011;20508;50.834;3.160;2022-09-09T16:29:44;2.65;;;1.00;;
34248;SDS011;20508;50.834;3.160;2022-09-09T16:32:17;4.45;;;1.50;;
34248;SDS011;20508;50.834;3.160;2022-09-09T16:35:01;2.53;;;1.33;;
34248;SDS011;20508;50.834;3.160;2022-09-09T16:37:38;3.08;;;1.23;;
34248;SDS011;20508;50.834;3.160;2022-09-09T16:40:13;5.00;;;0.90;;
34248;SDS011;20508;50.834;3.160;2022-09-09T16:42:46;5.07;;;1.23;;
34248;SDS011;20508;50.834;3.160;2022-09-09T16:45:22;2.88;;;1.08;;
34248;SDS011;20508;50.834;3.160;2022-09-09T16:48:01;5.30;;;1.23;;
34248;SDS011;20508;50.834;3.160;2022-09-09T16:50:49;3.92;;;1.33;;
34248;SDS011;20508;50.834;3.160;2022-09-09T16:53:29;4.10;;;1.27;;
34248;SDS011;20508;50.834;3.160;2022-09-09T16:56:07;2.92;;;1.10;;
34248;SDS011;20508;50.834;3.160;2022-09-09T16:58:55;4.40;;;1.30;;
34248;SDS011;20508;50.834;3.160;2022-09-09T17:01:39;4.15;;;1.23;;
34248;SDS011;20508;50.834;3.160;2022-09-09T17:04:10;4.22;;;1.08;;
34248;SDS011;20508;50.834;3.160;2022-09-09T17:07:00;7.00;;;1.50;;
34248;SDS011;20508;50.834;3.160;2022-09-09T17:09:46;5.70;;;1.27;;
34248;SDS011;20508;50.834;3.160;2022-09-09T17:12:22;4.90;;;1.20;;
34248;SDS011;20508;50.834;3.160;2022-09-09T17:15:04;5.97;;;1.50;;
34248;SDS011;20508;50.834;3.160;2022-09-09T17:17:47;5.55;;;1.38;;
34248;SDS011;20508;50.834;3.160;2022-09-09T17:20:25;3.80;;;1.30;;
34248;SDS011;20508;50.834;3.160;2022-09-09T17:23:01;3.97;;;1.50;;
34248;SDS011;20508;50.834;3.160;2022-09-09T17:25:30;4.45;;;1.40;;
34248;SDS011;20508;50.834;3.160;2022-09-09T17:28:15;4.40;;;1.48;;
34248;SDS011;20508;50.834;3.160;2022-09-09T17:30:52;4.85;;;1.55;;
34248;SDS011;20508;50.834;3.160;2022-09-09T17:33:33;3.03;;;1.05;;
34248;SDS011;20508;50.834;3.160;2022-09-09T17:36:38;3.38;;;1.10;;
34248;SDS011;20508;50.834;3.160;2022-09-09T17:39:05;6.28;;;1.60;;
34248;SDS011;20508;50.834;3.160;2022-09-09T17:41:44;3.95;;;1.42;;
34248;SDS011;20508;50.834;3.160;2022-09-09T17:44:22;4.47;;;1.00;;
34248;SDS011;20508;50.834;3.160;2022-09-09T17:47:06;4.70;;;1.48;;
34248;SDS011;20508;50.834;3.160;2022-09-09T17:50:00;2.65;;;1.17;;
34248;SDS011;20508;50.834;3.160;2022-09-09T17:53:02;4.03;;;1.25;;
34248;SDS011;20508;50.834;3.160;2022-09-09T17:55:41;3.20;;;0.90;;
34248;SDS011;20508;50.834;3.160;2022-09-09T18:00:53;4.47;;;1.23;;
34248;SDS011;20508;50.834;3.160;2022-09-09T18:03:40;6.80;;;1.10;;
34248;SDS011;20508;50.834;3.160;2022-09-09T18:06:19;4.53;;;1.08;;
34248;SDS011;20508;50.834;3.160;2022-09-09T18:08:59;4.93;;;1.25;;
34248;SDS011;20508;50.834;3.160;2022-09-09T18:11:39;3.50;;;0.82;;
34248;SDS011;20508;50.834;3.160;2022-09-09T18:16:59;3.30;;;1.13;;
34248;SDS011;20508;50.834;3.160;2022-09-09T18:19:37;3.25;;;1.38;;
34248;SDS011;20508;50.834;3.160;2022-09-09T18:22:32;4.40;;;1.08;;
34248;SDS011;20508;50.834;3.160;2022-09-09T18:25:08;3.13;;;1.48;;
34248;SDS011;20508;50.834;3.160;2022-09-09T18:27:57;3.33;;;1.10;;
34248;SDS011;20508;50.834;3.160;2022-09-09T18:30:37;4.38;;;1.40;;
34248;SDS011;20508;50.834;3.160;2022-09-09T18:33:08;4.18;;;1.33;;
34248;SDS011;20508;50.834;3.160;2022-09-09T18:35:49;4.00;;;1.23;;
34248;SDS011;20508;50.834;3.160;2022-09-09T18:38:28;7.20;;;1.30;;
34248;SDS011;20508;50.834;3.160;2022-09-09T18:44:03;3.90;;;1.13;;
34248;SDS011;20508;50.834;3.160;2022-09-09T18:46:41;3.72;;;1.10;;
34248;SDS011;20508;50.834;3.160;2022-09-09T18:49:18;4.05;;;1.40;;
34248;SDS011;20508;50.834;3.160;2022-09-09T18:51:48;2.72;;;1.35;;
34248;SDS011;20508;50.834;3.160;2022-09-09T18:54:29;5.40;;;1.10;;
34248;SDS011;20508;50.834;3.160;2022-09-09T18:57:13;5.82;;;1.58;;
34248;SDS011;20508;50.834;3.160;2022-09-09T18:59:51;4.72;;;1.33;;
34248;SDS011;20508;50.834;3.160;2022-09-09T19:02:22;4.82;;;1.40;;
34248;SDS011;20508;50.834;3.160;2022-09-09T19:04:48;5.10;;;1.20;;
34248;SDS011;20508;50.834;3.160;2022-09-09T19:07:14;6.65;;;1.70;;
34248;SDS011;20508;50.834;3.160;2022-09-09T19:09:54;8.77;;;1.38;;
34248;SDS011;20508;50.834;3.160;2022-09-09T19:12:31;11.63;;;1.30;;
34248;SDS011;20508;50.834;3.160;2022-09-09T19:18:04;4.85;;;1.25;;
34248;SDS011;20508;50.834;3.160;2022-09-09T19:20:43;6.82;;;1.75;;
34248;SDS011;20508;50.834;3.160;2022-09-09T19:23:29;6.03;;;1.77;;
34248;SDS011;20508;50.834;3.160;2022-09-09T19:26:27;5.25;;;1.60;;
34248;SDS011;20508;50.834;3.160;2022-09-09T19:29:08;4.07;;;1.10;;
34248;SDS011;20508;50.834;3.160;2022-09-09T19:31:47;3.35;;;1.35;;
34248;SDS011;20508;50.834;3.160;2022-09-09T19:34:25;3.95;;;1.45;;
34248;SDS011;20508;50.834;3.160;2022-09-09T19:37:02;5.93;;;1.55;;
34248;SDS011;20508;50.834;3.160;2022-09-09T19:39:39;6.38;;;1.40;;
34248;SDS011;20508;50.834;3.160;2022-09-09T19:42:20;7.10;;;1.30;;